• Join FlightAware (Why Join?)
  • Login
  • US Flag 
04:09AM EDT


 

Airport Tracker/Info


-or-


 

Live Flight TrackerFlight Track Log ✈ N576BS ✈ 02-May-2012 ✈ KHSV - KHSV

Flight Track Log - Related Links

Times and Time Zones

All times are in EDT time to prevent confusion due to time zone crossing. See the N576BS flight status page for this flight to view local times or setup timezone preferences in your user account.

Time Position Orientation Groundspeed Altitude Reporting Facility
EDT Latitude Longitude Course Direction KTS MPH feet Rate Location/Type
11:53AM 34.5935 -86.7382 151° Southeast  Level FlightAware Approximate
11:54AM 34.6162 -86.7830 148° Southeast  Level FlightAware Approximate
11:55AM 34.6390 -86.8278 145° Southeast  Level FlightAware Approximate
11:56AM 34.6333 -86.7771 150° Southeast  Level FlightAware Approximate
11:57AM 34.6731 -86.7563 154° Southeast  Level Estimated
11:58AM 34.3790 -86.5905 152° Southeast  Level FlightAware Approximate
11:59AM 34.4164 -86.6171 151° Southeast  Level Estimated
12:01PM 34.2908 -86.5331 151° Southeast 167 192 6,500  Level Atlanta Center
12:02PM 34.2517 -86.5067 148° Southeast 162 186 6,900 180 Climbing Atlanta Center
12:03PM 34.2106 -86.4753 149° Southeast 167 192 6,900 60 Level Atlanta Center
12:04PM 34.1775 -86.4517 153° Southeast 167 192 7,100 300 Climbing Atlanta Center
12:05PM 34.1344 -86.4256 147° Southeast 167 192 7,600 360 Climbing Atlanta Center
12:06PM 34.1014 -86.3994 152° Southeast 157 181 7,900 120 Climbing Atlanta Center
12:07PM 34.0603 -86.3733 149° Southeast 157 181 7,900  Level Atlanta Center
12:08PM 34.0211 -86.3444 150° Southeast 157 181 7,900  Level Atlanta Center
12:09PM 33.9839 -86.3186 150° Southeast 157 181 7,900  Level Atlanta Center
12:10PM 33.9428 -86.2900 150° Southeast 157 181 7,900  Level Atlanta Center
12:11PM 33.9056 -86.2639 152° Southeast 157 181 7,900  Level Atlanta Center
12:12PM 33.8644 -86.2378 154° Southeast 157 181 7,900  Level Atlanta Center
12:13PM 33.8253 -86.2144 145° Southeast 157 181 7,900  Level Atlanta Center
12:14PM 33.7881 -86.1833 152° Southeast 157 181 7,900  Level Atlanta Center
12:15PM 33.7508 -86.1600 157° South 157 181 7,900  Level Atlanta Center
12:16PM 33.7094 -86.1389 147° Southeast 161 185 7,900  Level Atlanta Center
12:17PM 33.6706 -86.1081 173° South 158 182 7,900  Level Atlanta Center
12:18PM 33.6308 -86.1022 307° West 172 198 7,900  Level Atlanta Center
12:19PM 33.6594 -86.1478 311° West 196 226 7,900  Level Atlanta Center
12:20PM 33.6919 -86.1933 309° West 131 151 7,900  Level Atlanta Center
12:21PM 33.7347 -86.2569 318° Northwest 197 227 7,900  Level Atlanta Center
12:22PM 33.7653 -86.2903 311° West 191 220 7,900  Level Atlanta Center
12:23PM 33.8039 -86.3439 316° Northwest 191 220 7,900  Level Atlanta Center
12:24PM 33.8428 -86.3897 305° West 191 220 7,900  Level Atlanta Center
12:25PM 33.8772 -86.4483 314° West 197 227 7,900  Level Atlanta Center
12:26PM 33.9139 -86.4944 312° West 197 227 7,900  Level Atlanta Center
12:37PM 34.2900 -86.9961 314° West 204 235 7,900  Level Memphis Center
12:38PM 34.3289 -87.0447 311° West 199 229 7,900  Level Memphis Center
12:39PM 34.3678 -87.0986 312° West 194 223 7,900  Level Memphis Center
12:40PM 34.4044 -87.1475 312° West 194 223 7,900  Level Memphis Center
12:41PM 34.4411 -87.1967 313° West 194 223 7,900  Level Memphis Center
12:42PM 34.4800 -87.2481 311° West 194 223 7,900  Level Memphis Center
12:43PM 34.5169 -87.2997 311° West 194 223 7,900  Level Memphis Center
12:44PM 34.5536 -87.3511 312° West 199 229 7,900  Level Memphis Center
12:45PM 34.5903 -87.4003 311° West 199 229 7,900  Level Memphis Center
12:46PM 34.6269 -87.4522 312° West 199 229 7,900  Level Memphis Center
12:47PM 34.6636 -87.5014 333° Northwest 199 229 7,900  Level Memphis Center
12:48PM 34.7017 -87.5253 52° Northeast 199 229 7,900  Level Memphis Center
12:49PM 34.7319 -87.4789 101° East 138 159 7,900  Level Memphis Center
12:50PM 34.7222 -87.4186 99° East 105 121 7,900  Level Memphis Center
12:51PM 34.7144 -87.3606 99° East 140 161 7,900 -60 Level Memphis Center
12:52PM 34.7067 -87.3028 84° East 162 186 7,800 -420 Descending Memphis Center
12:53PM 34.7117 -87.2419 64° Northeast 173 199 7,100 -720 Descending Memphis Center
12:54PM 34.7369 -87.1781 64° Northeast 173 199 6,400 -720 Descending Memphis Center
12:55PM 34.7606 -87.1189 60° Northeast 191 220 5,700 -660 Descending Memphis Center
12:56PM 34.7883 -87.0597 127° Southeast 198 228 5,100 -600 Descending Memphis Center
01:03PM 34.5788 -86.7277 285° West  Level FlightAware Approximate
01:04PM 34.5913 -86.7850 285° West  Level FlightAware Approximate
01:05PM 34.6038 -86.8423 285° West  Level FlightAware Approximate
01:06PM 34.6163 -86.8996 285° West  Level FlightAware Approximate
01:07PM 34.6287 -86.9569 285° West  Level FlightAware Approximate
01:08PM 34.6411 -87.0143 285° West  Level FlightAware Approximate
01:09PM 34.6535 -87.0717 285° West  Level FlightAware Approximate
01:10PM 34.6658 -87.1291 96° East  Level FlightAware Approximate
01:11PM 34.6611 -87.0700 96° East  Level Estimated
01:12PM 34.6333 -86.7667 280° West  Level FlightAware Approximate
01:13PM 34.6416 -86.8251 280° West  Level FlightAware Approximate
01:14PM 34.6498 -86.8836 280° West  Level FlightAware Approximate
01:15PM 34.6580 -86.9421 280° West  Level FlightAware Approximate
01:16PM 34.6662 -87.0006 280° West  Level FlightAware Approximate
01:17PM 34.6743 -87.0591 280° West  Level FlightAware Approximate
01:18PM 34.6824 -87.1176 280° West  Level FlightAware Approximate